Time;durP1;ratioP1;P1;durP2;ratioP2;P2;SDS_P1;SDS_P2;PMS_P1;PMS_P2;Temp;Humidity;BMP_temperature;BMP_pressure;BME280_temperature;BME280_humidity;BME280_pressure;Samples;Min_cycle;Max_cycle;Signal;HPM_P1;HPM_P2
2022/03/20 00:02:19;;;;;;;18.08;16.15;;;;;;;1.96;100.00;96862.25;5050729;28;24431;-75
2022/03/20 00:04:45;;;;;;;19.65;14.68;;;;;;;1.72;100.00;96856.56;5051029;28;24431;-75
2022/03/20 00:07:12;;;;;;;17.85;14.80;;;;;;;1.61;100.00;96855.84;5051887;28;24435;-75
2022/03/20 00:09:39;;;;;;;19.30;14.02;;;;;;;1.59;100.00;96857.53;5054853;28;24515;-75
2022/03/20 00:12:06;;;;;;;21.70;17.43;;;;;;;1.36;100.00;96853.50;5054998;28;24575;-76
2022/03/20 00:14:33;;;;;;;20.20;17.90;;;;;;;1.14;100.00;96849.44;5054758;28;24434;-76
2022/03/20 00:17:01;;;;;;;18.63;16.67;;;;;;;1.32;100.00;96848.44;5054537;28;24428;-75
2022/03/20 00:19:27;;;;;;;19.92;15.98;;;;;;;1.40;100.00;96849.22;5053919;28;24984;-75
2022/03/20 00:21:54;;;;;;;20.90;15.55;;;;;;;1.37;100.00;96842.47;5054504;28;24839;-75
2022/03/20 00:24:21;;;;;;;19.60;15.10;;;;;;;1.46;100.00;96838.97;5054604;28;24458;-75
2022/03/20 00:26:52;;;;;;;16.45;14.77;;;;;;;1.32;100.00;96839.09;5054395;28;24434;-75
2022/03/20 00:29:19;;;;;;;18.20;15.52;;;;;;;1.48;100.00;96838.94;5054204;28;24509;-75
2022/03/20 00:31:45;;;;;;;17.77;15.95;;;;;;;1.26;100.00;96834.06;5053977;28;24434;-76
2022/03/20 00:34:13;;;;;;;17.77;15.87;;;;;;;1.39;100.00;96832.22;5053918;28;24423;-75
2022/03/20 00:36:39;;;;;;;17.58;15.48;;;;;;;1.18;100.00;96838.34;5053850;28;24424;-76
2022/03/20 00:39:06;;;;;;;19.50;17.40;;;;;;;1.11;100.00;96840.16;5054160;28;24455;-75
2022/03/20 00:41:32;;;;;;;19.70;17.50;;;;;;;0.92;100.00;96841.97;5053998;28;24956;-75
2022/03/20 00:43:59;;;;;;;18.58;16.70;;;;;;;0.97;100.00;96829.19;5054215;28;24498;-75
2022/03/20 00:46:27;;;;;;;20.75;16.73;;;;;;;1.08;100.00;96832.50;5053922;28;24485;-75
2022/03/20 00:48:53;;;;;;;19.92;16.20;;;;;;;1.13;100.00;96833.31;5053827;28;24426;-75
2022/03/20 00:51:21;;;;;;;22.10;15.68;;;;;;;1.11;100.00;96827.38;5053682;28;24435;-75
2022/03/20 00:53:48;;;;;;;19.63;14.57;;;;;;;1.15;100.00;96829.03;5054893;28;24430;-75
2022/03/20 00:56:14;;;;;;;21.77;16.55;;;;;;;1.15;100.00;96831.59;5054499;28;24477;-75
2022/03/20 00:58:41;;;;;;;19.42;15.95;;;;;;;0.95;100.00;96836.00;5054260;28;24450;-75
2022/03/20 01:01:10;;;;;;;20.70;15.70;;;;;;;0.93;100.00;96835.19;5057437;28;24980;-76
2022/03/20 01:03:38;;;;;;;20.42;16.30;;;;;;;0.94;100.00;96840.25;5058662;28;24427;-75
2022/03/20 01:06:05;;;;;;;17.80;15.90;;;;;;;0.95;100.00;96839.41;5055998;28;24530;-75
2022/03/20 01:08:33;;;;;;;17.92;16.10;;;;;;;0.98;100.00;96835.16;5056158;28;24430;-76
2022/03/20 01:10:59;;;;;;;21.88;15.85;;;;;;;1.04;100.00;96824.88;5054791;28;24423;-76
2022/03/20 01:13:26;;;;;;;19.50;16.42;;;;;;;1.08;100.00;96827.41;5054507;28;24932;-75
2022/03/20 01:15:52;;;;;;;22.52;15.88;;;;;;;1.12;100.00;96823.97;5053782;28;24984;-75
2022/03/20 01:18:19;;;;;;;21.27;16.75;;;;;;;1.18;100.00;96815.41;5053536;28;25010;-75
2022/03/20 01:20:46;;;;;;;22.90;18.60;;;;;;;1.27;100.00;96810.22;5053524;28;24524;-75
2022/03/20 01:23:13;;;;;;;20.77;16.98;;;;;;;1.24;100.00;96810.25;5054306;28;24434;-75
2022/03/20 01:25:41;;;;;;;19.63;16.52;;;;;;;1.20;100.00;96806.03;5054308;28;24526;-75
2022/03/20 01:28:07;;;;;;;18.00;14.50;;;;;;;1.21;100.00;96794.97;5053778;28;24474;-75
2022/03/20 01:30:34;;;;;;;20.50;15.85;;;;;;;1.13;100.00;96789.94;5054238;28;24434;-75
2022/03/20 01:33:01;;;;;;;25.55;17.88;;;;;;;1.25;100.00;96776.19;5054297;28;24435;-75
2022/03/20 01:35:28;;;;;;;24.27;19.25;;;;;;;1.00;100.00;96785.78;5053975;28;24534;-75
2022/03/20 01:37:54;;;;;;;20.55;18.42;;;;;;;1.01;100.00;96787.50;5054037;28;24424;-75
2022/03/20 01:40:21;;;;;;;25.83;18.08;;;;;;;1.07;100.00;96796.78;5053685;28;24440;-75
2022/03/20 01:42:49;;;;;;;22.08;17.67;;;;;;;0.77;100.00;96793.63;5053390;28;24435;-75
2022/03/20 01:45:17;;;;;;;22.67;18.92;;;;;;;0.54;100.00;96795.53;5053586;28;24430;-76
2022/03/20 01:47:47;;;;;;;20.98;18.10;;;;;;;0.71;100.00;96794.56;5053424;28;24972;-75
2022/03/20 01:50:13;;;;;;;22.92;18.45;;;;;;;0.68;100.00;96807.31;5053686;28;24944;-75
2022/03/20 01:52:40;;;;;;;21.95;18.15;;;;;;;0.71;100.00;96803.91;5053892;28;24793;-75
2022/03/20 01:55:07;;;;;;;22.52;18.23;;;;;;;0.76;100.00;96802.16;5053371;28;25015;-75
2022/03/20 01:57:37;;;;;;;19.40;17.40;;;;;;;0.83;100.00;96802.97;5053400;28;24473;-75
2022/03/20 02:00:07;;;;;;;18.33;16.58;;;;;;;0.81;100.00;96808.06;5053952;28;24498;-75
2022/03/20 02:02:34;;;;;;;20.38;17.13;;;;;;;0.85;100.00;96796.97;5053898;28;24430;-76
2022/03/20 02:05:01;;;;;;;21.00;17.35;;;;;;;0.61;100.00;96797.19;5053477;28;24434;-75
2022/03/20 02:07:28;;;;;;;22.63;18.88;;;;;;;0.52;100.00;96781.94;5053713;28;24530;-75
2022/03/20 02:09:55;;;;;;;23.40;18.27;;;;;;;0.59;100.00;96786.97;5053403;28;24430;-75
2022/03/20 02:12:21;;;;;;;18.60;16.75;;;;;;;0.65;100.00;96781.84;5053339;28;24430;-75
2022/03/20 02:14:48;;;;;;;21.05;17.33;;;;;;;0.69;100.00;96775.84;5053440;28;24427;-75
2022/03/20 02:17:16;;;;;;;20.90;17.30;;;;;;;0.74;100.00;96775.81;5053297;28;24506;-75
2022/03/20 02:19:44;;;;;;;20.15;17.73;;;;;;;0.78;100.00;96766.44;5052528;28;24447;-75
2022/03/20 02:22:12;;;;;;;18.40;16.45;;;;;;;0.79;100.00;96778.34;5052759;28;24949;-75
2022/03/20 02:24:41;;;;;;;20.27;16.77;;;;;;;0.80;100.00;96772.38;5052726;28;24427;-75
2022/03/20 02:27:11;;;;;;;20.63;17.75;;;;;;;0.84;100.00;96779.97;5053040;28;24459;-75
2022/03/20 02:29:39;;;;;;;21.55;15.80;;;;;;;0.90;100.00;96774.84;5052808;28;24527;-75
2022/03/20 02:32:07;;;;;;;20.83;17.65;;;;;;;0.73;100.00;96777.53;5052414;28;24439;-75
2022/03/20 02:34:34;;;;;;;26.95;17.42;;;;;;;0.65;100.00;96773.34;5053068;28;24420;-76
2022/03/20 02:37:01;;;;;;;19.92;17.77;;;;;;;0.61;100.00;96775.06;5053184;28;24449;-75
2022/03/20 02:39:30;;;;;;;19.02;17.23;;;;;;;0.67;100.00;96771.66;5052779;28;24454;-75
2022/03/20 02:42:00;;;;;;;19.58;16.90;;;;;;;0.75;100.00;96769.88;5052692;28;24477;-75
2022/03/20 02:44:53;;;;;;;20.20;18.00;;;;;;;0.68;100.00;96769.06;5053017;28;24447;-75
2022/03/20 02:47:23;;;;;;;24.73;18.05;;;;;;;0.63;100.00;96767.41;5052543;28;24427;-75
2022/03/20 02:49:51;;;;;;;19.27;17.27;;;;;;;0.62;100.00;96766.56;5052352;28;24463;-76
2022/03/20 02:52:18;;;;;;;27.17;18.00;;;;;;;0.67;100.00;96762.28;5052339;28;24436;-75
2022/03/20 02:54:46;;;;;;;19.23;17.23;;;;;;;0.61;100.00;96766.59;5052683;28;24495;-75
2022/03/20 02:57:12;;;;;;;19.48;16.38;;;;;;;0.63;100.00;96765.72;5052861;28;24431;-75
2022/03/20 02:59:39;;;;;;;20.67;17.02;;;;;;;0.58;100.00;96762.34;5054469;28;24447;-75
2022/03/20 03:02:07;;;;;;;21.97;17.73;;;;;;;0.64;100.00;96759.75;5053208;28;24442;-75
2022/03/20 03:04:34;;;;;;;19.50;17.45;;;;;;;0.64;100.00;96762.31;5051022;28;24793;-75
2022/03/20 03:07:02;;;;;;;22.70;17.02;;;;;;;0.76;100.00;96769.00;5051129;28;24415;-75
2022/03/20 03:12:23;;;;;;;21.67;16.48;;;;;;;0.82;100.00;96760.47;5003765;28;24999;-75
2022/03/20 03:17:34;;;;;;;18.70;16.70;;;;;;;0.81;100.00;96772.34;5052182;28;25317;-75
2022/03/20 03:20:00;;;;;;;19.42;17.38;;;;;;;0.87;100.00;96764.66;5051552;28;24447;-75
2022/03/20 03:22:27;;;;;;;19.95;17.63;;;;;;;0.87;100.00;96763.81;5051808;28;24485;-75
2022/03/20 03:24:54;;;;;;;19.38;17.58;;;;;;;0.82;100.00;96765.56;5051699;28;24494;-75
2022/03/20 03:27:21;;;;;;;24.67;19.45;;;;;;;0.87;100.00;96769.75;5052250;28;24434;-75
2022/03/20 03:29:49;;;;;;;23.70;18.88;;;;;;;0.82;100.00;96766.41;5051480;28;24434;-75
2022/03/20 03:32:15;;;;;;;21.35;18.05;;;;;;;0.89;100.00;96765.50;5051964;28;24435;-74
2022/03/20 03:37:26;;;;;;;23.02;18.15;;;;;;;0.91;100.00;96765.47;5051868;28;24500;-75
2022/03/20 03:39:53;;;;;;;21.83;18.73;;;;;;;0.73;100.00;96767.31;5051868;28;24447;-75
2022/03/20 03:42:19;;;;;;;24.15;18.33;;;;;;;0.75;100.00;96763.94;5052876;28;24481;-75
2022/03/20 03:44:46;;;;;;;21.98;18.38;;;;;;;0.87;100.00;96761.25;5056365;28;24430;-75
2022/03/20 03:47:14;;;;;;;21.70;18.45;;;;;;;0.91;100.00;96760.38;5056170;28;24427;-75
2022/03/20 03:49:40;;;;;;;23.95;18.92;;;;;;;0.84;100.00;96774.03;5055724;28;24419;-75
2022/03/20 03:52:07;;;;;;;21.10;18.77;;;;;;;0.67;100.00;96756.34;5055477;28;24439;-75
2022/03/20 03:54:34;;;;;;;21.80;18.80;;;;;;;0.80;100.00;96745.16;5055880;28;24424;-75
2022/03/20 03:57:00;;;;;;;22.92;18.48;;;;;;;0.89;100.00;96756.97;5055676;28;24435;-75
2022/03/20 03:59:27;;;;;;;21.30;19.10;;;;;;;0.58;100.00;96792.94;5055402;28;24451;-75
2022/03/20 04:01:53;;;;;;;23.60;19.73;;;;;;;0.47;100.00;96785.38;5055416;28;24466;-76
2022/03/20 04:04:21;;;;;;;21.67;19.30;;;;;;;0.42;100.00;96787.09;5055419;28;24424;-76
2022/03/20 04:06:47;;;;;;;22.40;19.40;;;;;;;0.50;100.00;96783.66;5055629;28;24431;-75
2022/03/20 04:09:14;;;;;;;20.92;18.33;;;;;;;0.56;100.00;96779.38;5055448;28;24968;-75
2022/03/20 04:11:40;;;;;;;20.73;18.58;;;;;;;0.57;100.00;96783.59;5057403;28;24438;-75
2022/03/20 04:14:08;;;;;;;22.45;18.45;;;;;;;0.69;100.00;96796.25;5058276;28;24431;-75
2022/03/20 04:16:34;;;;;;;21.63;19.15;;;;;;;0.69;100.00;96796.25;5057136;28;24481;-75
2022/03/20 04:19:01;;;;;;;21.23;18.27;;;;;;;0.69;100.00;96775.00;5055524;28;24513;-75
2022/03/20 04:21:30;;;;;;;23.25;19.77;;;;;;;0.72;100.00;96775.84;5056033;28;24439;-75
2022/03/20 04:23:56;;;;;;;30.08;19.73;;;;;;;0.65;100.00;96786.94;5055976;28;24465;-75
2022/03/20 04:26:24;;;;;;;26.20;19.90;;;;;;;0.44;100.00;96789.63;5055121;28;24439;-74
2022/03/20 04:28:53;;;;;;;23.27;20.88;;;;;;;0.37;100.00;96800.72;5055010;28;24429;-75
2022/03/20 04:31:20;;;;;;;21.33;19.03;;;;;;;0.40;100.00;96800.72;5055217;28;24993;-75
2022/03/20 04:33:49;;;;;;;24.05;19.10;;;;;;;0.35;100.00;96792.25;5054880;28;24426;-75
2022/03/20 04:36:16;;;;;;;23.73;18.60;;;;;;;0.44;100.00;96787.94;5054921;28;24975;-75
2022/03/20 04:38:44;;;;;;;22.58;18.05;;;;;;;0.58;100.00;96792.09;5054531;28;24435;-75
2022/03/20 04:41:10;;;;;;;20.90;18.73;;;;;;;0.61;100.00;96782.72;5054367;28;24467;-75
2022/03/20 04:43:37;;;;;;;22.15;17.95;;;;;;;0.57;100.00;96788.72;5054745;28;24419;-75
2022/03/20 04:46:03;;;;;;;22.50;19.03;;;;;;;0.48;100.00;96801.50;5054273;28;24449;-75
2022/03/20 04:59:27;;;;;;;22.92;20.42;;;;;;;0.48;100.00;96797.28;5054670;28;24478;-75
2022/03/20 05:01:53;;;;;;;28.63;20.37;;;;;;;0.43;100.00;96798.16;5081256;23;24544;-69
2022/03/20 05:04:20;;;;;;;19.55;17.55;;;;;;;0.53;100.00;96799.78;5072662;28;24426;-68
2022/03/20 05:06:46;;;;;;;21.92;19.42;;;;;;;0.41;100.00;96804.97;5072690;28;24430;-70
2022/03/20 05:14:42;;;;;;;21.25;19.13;;;;;;;0.22;100.00;96799.97;5072426;28;24495;-68
2022/03/20 05:17:10;;;;;;;22.98;18.95;;;;;;;0.21;100.00;96798.28;5072416;28;24433;-68
2022/03/20 05:19:38;;;;;;;22.35;19.95;;;;;;;0.28;100.00;96796.53;5071862;28;24446;-70
2022/03/20 05:22:05;;;;;;;23.80;19.55;;;;;;;0.22;100.00;96799.13;5072332;28;24422;-69
2022/03/20 05:24:35;;;;;;;25.30;21.02;;;;;;;0.28;100.00;96816.09;5072131;28;24423;-70
2022/03/20 05:27:01;;;;;;;22.23;19.73;;;;;;;0.34;100.00;96816.06;5071898;28;24481;-70
2022/03/20 05:29:28;;;;;;;23.55;20.02;;;;;;;0.47;100.00;96818.50;5071627;28;24431;-69
2022/03/20 05:31:54;;;;;;;29.77;20.50;;;;;;;0.48;100.00;96824.44;5071638;28;24480;-69
2022/03/20 05:34:21;;;;;;;24.35;21.00;;;;;;;0.53;100.00;96821.88;5071599;28;24936;-70
2022/03/20 05:36:48;;;;;;;22.92;20.50;;;;;;;0.60;100.00;96821.00;5071686;28;24414;-69
2022/03/20 05:39:15;;;;;;;25.40;20.65;;;;;;;0.50;100.00;96830.38;5071247;28;24437;-68
2022/03/20 05:41:47;;;;;;;28.80;20.90;;;;;;;0.50;100.00;96830.38;5071770;28;24424;-68
2022/03/20 05:44:13;;;;;;;25.77;21.75;;;;;;;0.60;100.00;96834.56;5071861;28;24496;-68
2022/03/20 05:46:40;;;;;;;24.70;20.40;;;;;;;0.62;100.00;96832.00;5071618;28;24445;-68
2022/03/20 05:49:06;;;;;;;24.67;20.40;;;;;;;0.85;100.00;96827.56;5071250;28;24993;-69
2022/03/20 05:51:34;;;;;;;21.77;19.60;;;;;;;1.00;100.00;96828.31;5071738;28;24418;-68
2022/03/20 05:54:00;;;;;;;21.17;18.98;;;;;;;1.08;100.00;96829.97;5071636;28;24791;-69
2022/03/20 05:59:12;;;;;;;26.83;20.63;;;;;;;1.13;100.00;96827.34;5071154;28;24414;-69
2022/03/20 06:01:39;;;;;;;24.58;20.65;;;;;;;1.12;100.00;96836.72;5071316;28;24472;-69
2022/03/20 06:04:06;;;;;;;27.53;21.07;;;;;;;1.07;100.00;96833.34;5071527;28;24433;-68
2022/03/20 06:06:32;;;;;;;22.45;20.15;;;;;;;1.12;100.00;96843.53;5071040;28;24527;-69
2022/03/20 06:08:59;;;;;;;25.30;21.52;;;;;;;1.16;100.00;96845.19;5071010;28;24426;-69
2022/03/20 06:11:26;;;;;;;23.67;20.63;;;;;;;1.41;100.00;96840.72;5071094;28;24414;-70
2022/03/20 06:13:53;;;;;;;28.05;21.15;;;;;;;1.62;100.00;96837.94;5071133;28;24525;-70
2022/03/20 06:16:22;;;;;;;23.30;20.73;;;;;;;1.43;100.00;96849.19;5071171;28;24455;-70
2022/03/20 06:18:49;;;;;;;24.83;22.13;;;;;;;1.44;100.00;96848.31;5071038;28;24414;-71
2022/03/20 06:21:15;;;;;;;26.55;21.20;;;;;;;1.51;100.00;96854.22;5070956;28;24443;-68
2022/03/20 06:23:44;;;;;;;23.17;20.33;;;;;;;1.68;100.00;96847.25;5070943;28;25008;-69
2022/03/20 06:26:11;;;;;;;24.08;20.65;;;;;;;1.55;100.00;96861.84;5070795;28;24493;-69
2022/03/20 06:28:40;;;;;;;26.92;22.10;;;;;;;1.62;100.00;96862.63;5071052;28;24445;-69
2022/03/20 06:31:06;;;;;;;30.05;20.27;;;;;;;1.73;100.00;96871.03;5070844;28;25006;-69
2022/03/20 06:33:35;;;;;;;27.88;20.42;;;;;;;1.74;100.00;96876.97;5070999;28;24421;-70
2022/03/20 06:36:02;;;;;;;24.10;21.25;;;;;;;1.66;100.00;96867.66;5070757;28;24445;-69
2022/03/20 06:38:30;;;;;;;22.83;20.35;;;;;;;1.63;100.00;96865.19;5070739;28;24838;-69
2022/03/20 06:40:56;;;;;;;23.97;21.37;;;;;;;1.62;100.00;96876.22;5070127;28;24445;-70
2022/03/20 06:43:23;;;;;;;27.55;20.85;;;;;;;1.63;100.00;96884.72;5069699;28;24967;-70
2022/03/20 06:45:50;;;;;;;23.92;21.33;;;;;;;1.75;100.00;96884.63;5069945;28;24433;-70
2022/03/20 06:48:17;;;;;;;28.02;22.10;;;;;;;1.87;100.00;96879.38;5070147;28;24414;-70
2022/03/20 06:50:45;;;;;;;26.40;22.58;;;;;;;1.88;100.00;96881.06;5069411;28;24419;-68
2022/03/20 06:53:11;;;;;;;30.55;23.67;;;;;;;1.83;100.00;96882.00;5070384;28;24426;-70
2022/03/20 06:55:38;;;;;;;31.40;23.23;;;;;;;1.97;100.00;96876.75;5070625;28;24484;-70
2022/03/20 06:58:05;;;;;;;25.05;22.48;;;;;;;2.20;100.00;96890.09;5070802;28;24418;-70
2022/03/20 07:00:32;;;;;;;28.70;23.88;;;;;;;2.21;100.00;96893.50;5070427;28;24441;-70
2022/03/20 07:03:00;;;;;;;29.83;24.17;;;;;;;2.23;99.80;96895.16;5070210;28;24423;-69
2022/03/20 07:05:28;;;;;;;30.35;22.75;;;;;;;2.32;98.95;96897.59;5070431;28;24967;-69
2022/03/20 07:07:55;;;;;;;28.67;22.85;;;;;;;2.51;99.01;96897.38;5070326;28;24462;-69
2022/03/20 07:10:23;;;;;;;25.25;22.27;;;;;;;2.71;97.62;96895.41;5070374;28;24468;-70
2022/03/20 07:12:50;;;;;;;28.20;24.38;;;;;;;2.75;94.72;96896.22;5070119;28;24472;-71
2022/03/20 07:15:17;;;;;;;30.25;23.55;;;;;;;2.94;95.33;96897.63;5070411;28;24450;-68
2022/03/20 07:17:45;;;;;;;27.90;22.48;;;;;;;3.25;94.18;96902.28;5071997;28;24526;-69
2022/03/20 07:20:13;;;;;;;28.70;23.40;;;;;;;3.30;91.00;96903.03;5074189;28;24485;-69
2022/03/20 07:22:40;;;;;;;29.83;23.67;;;;;;;3.21;93.86;96908.31;5074322;28;24418;-69
2022/03/20 07:30:38;;;;;;;28.53;21.87;;;;;;;3.34;94.07;96918.34;5074025;28;24414;-69
2022/03/20 07:33:04;;;;;;;27.40;23.23;;;;;;;3.37;92.81;96915.75;5074277;28;24485;-69
2022/03/20 07:35:32;;;;;;;33.40;23.90;;;;;;;3.35;93.13;96917.47;5074172;28;24429;-71
2022/03/20 07:37:58;;;;;;;27.48;24.48;;;;;;;3.28;93.11;96915.88;5074207;28;24422;-70
2022/03/20 07:40:26;;;;;;;29.17;25.23;;;;;;;3.31;95.11;96925.22;5073833;28;24442;-69
2022/03/20 07:42:53;;;;;;;26.33;22.58;;;;;;;3.35;95.97;96924.31;5073930;28;24990;-70
2022/03/20 07:45:22;;;;;;;27.63;24.23;;;;;;;3.25;95.84;96925.31;5073824;28;24423;-70
2022/03/20 07:47:49;;;;;;;26.48;23.52;;;;;;;3.30;97.09;96932.06;5074090;28;24431;-70
2022/03/20 07:50:15;;;;;;;29.65;22.35;;;;;;;3.42;96.54;96935.31;5073766;28;24411;-70
2022/03/20 07:52:42;;;;;;;25.35;22.67;;;;;;;3.35;96.30;96937.09;5073725;28;24424;-69
2022/03/20 07:55:09;;;;;;;26.73;23.00;;;;;;;3.38;95.64;96937.06;5073827;28;24419;-69
2022/03/20 07:57:42;;;;;;;28.02;23.02;;;;;;;3.46;96.07;96936.94;5073834;28;24422;-69
2022/03/20 08:00:10;;;;;;;25.70;22.83;;;;;;;3.55;93.99;96929.09;5073695;28;24521;-70
2022/03/20 08:02:37;;;;;;;26.30;23.52;;;;;;;3.57;93.81;96930.78;5072891;28;24438;-70
2022/03/20 08:05:04;;;;;;;28.42;24.00;;;;;;;3.67;93.68;96934.03;5072399;28;24437;-70
2022/03/20 08:07:35;;;;;;;29.50;23.38;;;;;;;3.80;93.39;96934.66;5072318;28;24418;-69
2022/03/20 08:10:05;;;;;;;27.00;23.63;;;;;;;3.90;92.45;96938.75;5072289;28;24518;-70
2022/03/20 08:12:32;;;;;;;28.00;22.88;;;;;;;4.14;93.38;96934.88;5072298;28;24483;-70
2022/03/20 08:15:00;;;;;;;26.25;23.45;;;;;;;4.31;91.51;96944.84;5072184;28;24951;-70
2022/03/20 08:17:28;;;;;;;27.77;23.23;;;;;;;4.30;90.41;96941.44;5072331;28;24419;-70
2022/03/20 08:19:54;;;;;;;25.83;22.83;;;;;;;4.32;91.54;96942.22;5071930;28;24418;-69
2022/03/20 08:22:21;;;;;;;28.60;23.08;;;;;;;4.51;91.49;96947.84;5071998;28;24434;-70
2022/03/20 08:24:48;;;;;;;25.27;22.45;;;;;;;4.90;91.86;96940.19;5071932;28;25021;-69
2022/03/20 08:27:15;;;;;;;25.33;22.15;;;;;;;5.10;87.74;96943.16;5071977;28;24430;-70
2022/03/20 08:29:42;;;;;;;28.13;22.17;;;;;;;5.03;85.82;96938.19;5071804;28;24418;-69
2022/03/20 08:32:10;;;;;;;29.33;24.43;;;;;;;4.98;85.60;96940.03;5071830;28;25067;-69
2022/03/20 08:34:37;;;;;;;27.87;24.63;;;;;;;5.03;85.52;96949.31;5071905;28;24424;-68
2022/03/20 08:37:04;;;;;;;33.40;23.33;;;;;;;5.09;84.03;96948.34;5071845;28;24497;-69
2022/03/20 08:39:30;;;;;;;29.85;24.42;;;;;;;5.15;83.75;96958.44;5071526;28;24418;-70
2022/03/20 08:41:57;;;;;;;29.23;25.20;;;;;;;5.23;82.87;96950.59;5071959;28;24994;-69
2022/03/20 08:44:26;;;;;;;29.58;24.77;;;;;;;5.30;82.44;96952.13;5071605;28;24951;-69
2022/03/20 08:46:52;;;;;;;27.65;23.25;;;;;;;5.35;82.29;96958.03;5071852;28;24414;-70
2022/03/20 08:49:20;;;;;;;28.70;23.17;;;;;;;5.41;82.97;96963.00;5071485;28;24457;-70
2022/03/20 08:51:47;;;;;;;27.17;23.48;;;;;;;5.31;82.97;96967.53;5071597;28;24509;-70
2022/03/20 08:54:13;;;;;;;29.08;23.48;;;;;;;5.30;82.56;96972.69;5071710;28;24877;-68
2022/03/20 08:56:40;;;;;;;26.20;22.85;;;;;;;5.27;82.28;96975.34;5071705;28;24433;-70
2022/03/20 08:59:07;;;;;;;28.02;23.83;;;;;;;5.19;82.40;96979.78;5071359;28;24923;-71
2022/03/20 09:01:33;;;;;;;30.60;23.97;;;;;;;5.28;81.50;96974.44;5010747;28;1734558;-71
2022/03/20 09:04:00;;;;;;;25.60;22.67;;;;;;;5.18;82.90;96986.63;5072707;28;24426;-71
2022/03/20 09:06:29;;;;;;;27.35;23.73;;;;;;;5.19;82.42;96983.22;5072400;28;24415;-71
2022/03/20 09:08:55;;;;;;;28.08;24.10;;;;;;;5.13;83.75;96988.47;5072174;28;24457;-71
2022/03/20 09:11:22;;;;;;;28.98;23.67;;;;;;;5.15;83.84;96991.84;5072500;28;24538;-70
2022/03/20 09:13:48;;;;;;;27.05;24.17;;;;;;;5.20;82.99;96986.63;5072423;28;24413;-70
2022/03/20 09:18:59;;;;;;;25.73;22.98;;;;;;;5.24;81.82;96988.25;5071756;28;24414;-71
2022/03/20 09:21:27;;;;;;;31.77;24.65;;;;;;;5.24;81.62;97001.09;5072128;28;24535;-71
2022/03/20 09:23:55;;;;;;;30.00;24.23;;;;;;;5.23;82.54;97000.25;5072307;28;24430;-71
2022/03/20 09:26:21;;;;;;;27.37;24.53;;;;;;;5.19;81.65;97008.03;5072162;28;24415;-71
2022/03/20 09:28:48;;;;;;;28.63;25.20;;;;;;;5.25;80.85;97003.59;5071927;28;24414;-71
2022/03/20 09:31:16;;;;;;;31.35;25.17;;;;;;;5.35;80.47;97009.41;5071820;28;24468;-71
2022/03/20 09:33:43;;;;;;;26.02;23.30;;;;;;;5.36;80.91;97016.22;5071997;28;24836;-72
2022/03/20 09:36:10;;;;;;;29.30;26.20;;;;;;;5.40;81.45;97004.16;5071717;28;24844;-71
2022/03/20 09:38:37;;;;;;;29.27;24.20;;;;;;;5.39;82.08;97012.75;5072000;28;24481;-72
2022/03/20 09:41:07;;;;;;;28.15;24.77;;;;;;;5.47;80.72;97011.69;5071121;28;24450;-71
2022/03/20 09:43:34;;;;;;;26.65;23.75;;;;;;;5.58;81.37;97017.41;5059571;28;24631;-70
2022/03/20 09:46:01;;;;;;;27.10;23.48;;;;;;;5.56;81.40;97016.63;5051643;28;24793;-71
2022/03/20 09:48:29;;;;;;;26.42;23.65;;;;;;;5.58;83.33;97019.16;5068633;28;24508;-69
2022/03/20 09:50:56;;;;;;;26.57;23.67;;;;;;;5.67;82.68;97015.50;5070093;28;24900;-70
2022/03/20 09:53:22;;;;;;;28.10;25.10;;;;;;;5.66;82.83;97018.97;5071281;28;24441;-71
2022/03/20 09:55:49;;;;;;;32.08;24.55;;;;;;;5.75;83.18;97018.78;5071087;28;24820;-71
2022/03/20 09:58:17;;;;;;;32.63;25.27;;;;;;;5.76;82.88;97011.00;5070274;28;24496;-71
2022/03/20 10:00:43;;;;;;;29.23;24.95;;;;;;;5.76;83.15;97016.16;5067104;28;24557;-70
2022/03/20 10:03:17;;;;;;;33.33;24.52;;;;;;;5.91;83.40;97017.50;5070150;28;24789;-71
2022/03/20 10:05:44;;;;;;;27.98;25.08;;;;;;;6.01;84.62;97016.44;5070107;28;24438;-71
2022/03/20 10:08:17;;;;;;;30.35;24.83;;;;;;;6.00;85.06;97017.28;5071052;28;24951;-70
2022/03/20 10:10:43;;;;;;;28.67;24.95;;;;;;;6.11;85.73;97003.34;5070194;28;24423;-71
2022/03/20 10:13:13;;;;;;;26.77;23.70;;;;;;;6.19;83.48;97002.28;5051608;28;24527;-71
2022/03/20 10:15:43;;;;;;;26.50;23.10;;;;;;;6.35;83.68;97005.28;5066565;28;24435;-71
2022/03/20 10:18:11;;;;;;;31.48;24.13;;;;;;;6.48;81.05;96998.91;5066112;28;24442;-71
2022/03/20 10:20:41;;;;;;;31.75;24.77;;;;;;;6.62;79.40;96993.41;5064165;28;24983;-71
2022/03/20 10:23:28;;;;;;;39.13;24.33;;;;;;;6.88;77.39;96990.09;5070542;28;24551;-70
2022/03/20 10:25:55;;;;;;;27.20;24.00;;;;;;;7.06;78.26;96995.59;5070491;28;24511;-71
2022/03/20 10:28:22;;;;;;;29.20;25.98;;;;;;;7.24;76.59;96987.31;5070336;28;24769;-71
2022/03/20 10:30:57;;;;;;;27.20;23.85;;;;;;;7.59;74.02;96991.38;5069683;28;24782;-71
2022/03/20 10:33:24;;;;;;;31.63;24.65;;;;;;;7.82;73.89;96990.66;5070627;28;24522;-71
2022/03/20 10:36:08;;;;;;;31.17;25.75;;;;;;;7.91;71.75;96979.22;5060494;28;24435;-71
2022/03/20 10:38:37;;;;;;;28.58;23.67;;;;;;;8.04;73.03;96974.47;5051281;28;20792;-71
2022/03/20 10:41:16;;;;;;;31.13;24.55;;;;;;;8.20;72.41;96973.06;5049950;28;24450;-70
2022/03/20 10:43:43;;;;;;;27.63;22.90;;;;;;;8.51;72.10;96966.88;5050589;28;24419;-71
2022/03/20 10:46:18;;;;;;;31.88;24.15;;;;;;;8.80;71.24;96965.81;5049232;28;21126;-71
2022/03/20 10:48:46;;;;;;;27.90;23.55;;;;;;;8.98;69.76;96974.66;5062823;28;20665;-71
2022/03/20 10:51:13;;;;;;;26.92;22.73;;;;;;;9.06;69.65;96975.19;5070117;28;24437;-71
2022/03/20 10:53:52;;;;;;;27.98;24.02;;;;;;;9.10;69.77;96974.19;5070381;28;24422;-71
2022/03/20 10:56:19;;;;;;;34.80;23.47;;;;;;;9.40;69.88;96978.16;5052301;28;20638;-71
2022/03/20 10:58:45;;;;;;;30.10;23.00;;;;;;;9.58;68.87;96979.19;5069759;28;20784;-70
2022/03/20 11:01:13;;;;;;;26.03;22.23;;;;;;;9.74;68.63;96982.00;5069852;28;24529;-71
2022/03/20 11:03:42;;;;;;;27.55;21.73;;;;;;;9.92;68.25;96980.44;5070458;28;20775;-71
2022/03/20 11:06:09;;;;;;;24.17;20.60;;;;;;;10.02;67.58;96973.97;5069552;28;24423;-71
2022/03/20 11:08:37;;;;;;;29.75;21.27;;;;;;;10.29;67.39;96976.34;5070234;28;24418;-70
2022/03/20 11:11:04;;;;;;;24.77;21.17;;;;;;;10.38;67.03;96981.97;5068555;28;24502;-70
2022/03/20 11:13:33;;;;;;;25.58;19.58;;;;;;;10.47;64.79;96977.31;5049757;28;24427;-71
2022/03/20 11:16:04;;;;;;;22.85;20.25;;;;;;;10.45;64.57;96976.53;5050161;28;24427;-71
2022/03/20 11:18:33;;;;;;;22.88;20.38;;;;;;;10.29;64.84;96978.94;5050888;28;24971;-71
2022/03/20 11:21:04;;;;;;;28.00;19.92;;;;;;;10.28;65.11;96982.44;5049190;28;24497;-70
2022/03/20 11:23:34;;;;;;;24.80;19.90;;;;;;;10.32;65.34;96979.66;5057623;28;24800;-71
2022/03/20 11:26:03;;;;;;;32.00;21.30;;;;;;;10.56;64.08;96976.91;5068757;28;24480;-70
2022/03/20 11:28:35;;;;;;;25.85;20.17;;;;;;;10.82;62.93;96978.34;5049880;28;24469;-71
2022/03/20 11:31:02;;;;;;;26.13;19.08;;;;;;;11.03;60.09;96985.16;5049451;28;24424;-71
2022/03/20 11:33:28;;;;;;;25.55;19.52;;;;;;;11.09;60.04;96984.06;5049850;28;24793;-70
2022/03/20 11:36:00;;;;;;;25.17;17.60;;;;;;;11.27;58.36;96985.81;5049029;28;24801;-71
2022/03/20 11:38:27;;;;;;;21.20;18.10;;;;;;;11.45;55.47;96981.50;5049989;28;24514;-70
2022/03/20 11:41:08;;;;;;;23.60;17.75;;;;;;;11.39;55.81;96985.25;5048878;28;24424;-70
2022/03/20 11:43:35;;;;;;;24.42;16.98;;;;;;;11.33;56.72;96982.91;5049521;28;24484;-71
2022/03/20 11:46:21;;;;;;;20.52;15.88;;;;;;;11.48;54.56;96983.13;5049804;28;24432;-71
2022/03/20 11:49:24;;;;;;;18.20;14.13;;;;;;;11.56;54.66;96976.63;5052085;28;24960;-70
2022/03/20 11:54:20;;;;;;;23.48;15.30;;;;;;;11.84;54.80;96968.41;5044996;28;24468;-73
2022/03/20 11:56:48;;;;;;;21.25;15.52;;;;;;;12.07;54.27;96967.28;5049445;28;24530;-73
2022/03/20 11:59:45;;;;;;;18.30;14.98;;;;;;;12.07;52.64;96969.03;5047155;28;24442;-73
2022/03/20 12:02:15;;;;;;;17.17;13.67;;;;;;;12.06;53.74;96964.78;5046092;28;24459;-73